sensor_id;sensor_type;location;lat;lon;timestamp;P1;durP1;ratioP1;P2;durP2;ratioP2
42614;SDS011;28754;47.700;7.924;2022-12-01T00:00:59;8.65;;;5.47;;
42614;SDS011;28754;47.700;7.924;2022-12-01T00:03:47;7.13;;;4.60;;
42614;SDS011;28754;47.700;7.924;2022-12-01T00:06:37;6.95;;;4.47;;
42614;SDS011;28754;47.700;7.924;2022-12-01T00:09:24;8.18;;;5.47;;
42614;SDS011;28754;47.700;7.924;2022-12-01T00:12:29;7.25;;;5.13;;
42614;SDS011;28754;47.700;7.924;2022-12-01T00:15:16;10.27;;;5.57;;
42614;SDS011;28754;47.700;7.924;2022-12-01T00:18:03;8.30;;;5.20;;
42614;SDS011;28754;47.700;7.924;2022-12-01T00:20:53;6.63;;;4.35;;
42614;SDS011;28754;47.700;7.924;2022-12-01T00:23:44;8.35;;;5.35;;
42614;SDS011;28754;47.700;7.924;2022-12-01T00:26:32;8.02;;;5.35;;
42614;SDS011;28754;47.700;7.924;2022-12-01T00:29:19;7.60;;;5.18;;
42614;SDS011;28754;47.700;7.924;2022-12-01T00:32:06;8.38;;;5.20;;
42614;SDS011;28754;47.700;7.924;2022-12-01T00:34:52;9.15;;;5.25;;
42614;SDS011;28754;47.700;7.924;2022-12-01T00:37:39;11.20;;;5.07;;
42614;SDS011;28754;47.700;7.924;2022-12-01T00:40:26;9.68;;;5.57;;
42614;SDS011;28754;47.700;7.924;2022-12-01T00:43:12;7.95;;;5.47;;
42614;SDS011;28754;47.700;7.924;2022-12-01T00:45:59;7.63;;;4.80;;
42614;SDS011;28754;47.700;7.924;2022-12-01T00:48:46;7.47;;;4.90;;
42614;SDS011;28754;47.700;7.924;2022-12-01T00:51:33;10.00;;;6.25;;
42614;SDS011;28754;47.700;7.924;2022-12-01T00:54:19;8.68;;;5.28;;
42614;SDS011;28754;47.700;7.924;2022-12-01T00:57:06;12.63;;;5.13;;
42614;SDS011;28754;47.700;7.924;2022-12-01T00:59:54;8.23;;;6.38;;
42614;SDS011;28754;47.700;7.924;2022-12-01T01:02:40;10.02;;;5.32;;
42614;SDS011;28754;47.700;7.924;2022-12-01T01:05:27;7.75;;;5.85;;
42614;SDS011;28754;47.700;7.924;2022-12-01T01:08:14;8.45;;;5.55;;
42614;SDS011;28754;47.700;7.924;2022-12-01T01:11:01;8.85;;;6.13;;
42614;SDS011;28754;47.700;7.924;2022-12-01T01:13:49;10.68;;;5.32;;
42614;SDS011;28754;47.700;7.924;2022-12-01T01:16:36;9.52;;;6.20;;
42614;SDS011;28754;47.700;7.924;2022-12-01T01:19:23;9.85;;;5.68;;
42614;SDS011;28754;47.700;7.924;2022-12-01T01:22:10;7.80;;;6.05;;
42614;SDS011;28754;47.700;7.924;2022-12-01T01:24:57;8.95;;;6.20;;
42614;SDS011;28754;47.700;7.924;2022-12-01T01:27:44;8.95;;;5.13;;
42614;SDS011;28754;47.700;7.924;2022-12-01T01:30:30;9.88;;;6.30;;
42614;SDS011;28754;47.700;7.924;2022-12-01T01:33:17;8.60;;;6.20;;
42614;SDS011;28754;47.700;7.924;2022-12-01T01:36:04;11.02;;;6.28;;
42614;SDS011;28754;47.700;7.924;2022-12-01T01:38:52;8.50;;;6.25;;
42614;SDS011;28754;47.700;7.924;2022-12-01T01:41:40;7.93;;;5.38;;
42614;SDS011;28754;47.700;7.924;2022-12-01T01:47:36;8.07;;;5.88;;
42614;SDS011;28754;47.700;7.924;2022-12-01T01:50:25;9.13;;;5.70;;
42614;SDS011;28754;47.700;7.924;2022-12-01T01:53:14;8.60;;;5.55;;
42614;SDS011;28754;47.700;7.924;2022-12-01T01:56:01;10.40;;;6.18;;
42614;SDS011;28754;47.700;7.924;2022-12-01T01:58:49;8.80;;;6.53;;
42614;SDS011;28754;47.700;7.924;2022-12-01T02:01:38;9.23;;;5.35;;
42614;SDS011;28754;47.700;7.924;2022-12-01T02:04:24;8.95;;;5.25;;
42614;SDS011;28754;47.700;7.924;2022-12-01T02:07:14;9.07;;;4.78;;
42614;SDS011;28754;47.700;7.924;2022-12-01T02:10:04;6.90;;;4.72;;
42614;SDS011;28754;47.700;7.924;2022-12-01T02:13:15;18.98;;;7.30;;
42614;SDS011;28754;47.700;7.924;2022-12-01T02:23:22;16.35;;;9.43;;
42614;SDS011;28754;47.700;7.924;2022-12-01T02:29:53;16.40;;;9.73;;
42614;SDS011;28754;47.700;7.924;2022-12-01T02:33:06;17.67;;;10.35;;
42614;SDS011;28754;47.700;7.924;2022-12-01T02:36:18;22.45;;;12.20;;
42614;SDS011;28754;47.700;7.924;2022-12-01T02:42:28;21.35;;;12.20;;
42614;SDS011;28754;47.700;7.924;2022-12-01T02:45:56;23.17;;;13.60;;
42614;SDS011;28754;47.700;7.924;2022-12-01T02:48:51;19.10;;;11.98;;
42614;SDS011;28754;47.700;7.924;2022-12-01T02:51:44;20.50;;;13.38;;
42614;SDS011;28754;47.700;7.924;2022-12-01T02:54:31;21.38;;;13.02;;
42614;SDS011;28754;47.700;7.924;2022-12-01T02:57:19;20.85;;;12.52;;
42614;SDS011;28754;47.700;7.924;2022-12-01T03:00:07;20.42;;;12.30;;
42614;SDS011;28754;47.700;7.924;2022-12-01T03:06:40;21.40;;;12.35;;
42614;SDS011;28754;47.700;7.924;2022-12-01T03:22:50;19.52;;;12.65;;
42614;SDS011;28754;47.700;7.924;2022-12-01T03:25:54;19.20;;;11.90;;
42614;SDS011;28754;47.700;7.924;2022-12-01T03:28:49;20.85;;;12.60;;
42614;SDS011;28754;47.700;7.924;2022-12-01T03:31:46;13.45;;;9.10;;
42614;SDS011;28754;47.700;7.924;2022-12-01T03:34:46;22.40;;;13.25;;
42614;SDS011;28754;47.700;7.924;2022-12-01T03:37:43;16.80;;;10.63;;
42614;SDS011;28754;47.700;7.924;2022-12-01T03:40:39;18.75;;;11.32;;
42614;SDS011;28754;47.700;7.924;2022-12-01T03:43:30;18.35;;;11.70;;
42614;SDS011;28754;47.700;7.924;2022-12-01T03:46:28;20.33;;;12.90;;
42614;SDS011;28754;47.700;7.924;2022-12-01T03:49:36;15.73;;;10.50;;
42614;SDS011;28754;47.700;7.924;2022-12-01T03:55:40;21.35;;;12.00;;
42614;SDS011;28754;47.700;7.924;2022-12-01T03:58:37;21.80;;;13.07;;
42614;SDS011;28754;47.700;7.924;2022-12-01T04:01:30;23.02;;;13.10;;
42614;SDS011;28754;47.700;7.924;2022-12-01T04:04:18;19.35;;;11.77;;
42614;SDS011;28754;47.700;7.924;2022-12-01T04:07:05;21.60;;;12.63;;
42614;SDS011;28754;47.700;7.924;2022-12-01T04:09:52;28.38;;;16.98;;
42614;SDS011;28754;47.700;7.924;2022-12-01T04:12:39;25.15;;;14.80;;
42614;SDS011;28754;47.700;7.924;2022-12-01T04:15:26;23.75;;;14.73;;
42614;SDS011;28754;47.700;7.924;2022-12-01T04:18:13;21.98;;;15.70;;
42614;SDS011;28754;47.700;7.924;2022-12-01T04:20:59;31.42;;;23.63;;
42614;SDS011;28754;47.700;7.924;2022-12-01T04:23:46;18.48;;;12.23;;
42614;SDS011;28754;47.700;7.924;2022-12-01T04:26:45;21.17;;;13.57;;
42614;SDS011;28754;47.700;7.924;2022-12-01T04:29:31;19.38;;;13.02;;
42614;SDS011;28754;47.700;7.924;2022-12-01T04:32:18;24.65;;;16.63;;
42614;SDS011;28754;47.700;7.924;2022-12-01T04:35:05;19.50;;;12.27;;
42614;SDS011;28754;47.700;7.924;2022-12-01T04:37:54;26.52;;;19.95;;
42614;SDS011;28754;47.700;7.924;2022-12-01T04:40:41;20.05;;;13.45;;
42614;SDS011;28754;47.700;7.924;2022-12-01T04:43:28;21.77;;;13.45;;
42614;SDS011;28754;47.700;7.924;2022-12-01T04:46:14;21.38;;;13.73;;
42614;SDS011;28754;47.700;7.924;2022-12-01T04:49:01;18.33;;;13.10;;
42614;SDS011;28754;47.700;7.924;2022-12-01T04:51:49;22.85;;;14.25;;
42614;SDS011;28754;47.700;7.924;2022-12-01T04:54:36;22.15;;;14.82;;
42614;SDS011;28754;47.700;7.924;2022-12-01T04:57:22;20.10;;;13.20;;
42614;SDS011;28754;47.700;7.924;2022-12-01T05:00:09;17.20;;;11.85;;
42614;SDS011;28754;47.700;7.924;2022-12-01T05:02:58;18.20;;;12.02;;
42614;SDS011;28754;47.700;7.924;2022-12-01T05:05:46;23.80;;;13.85;;
42614;SDS011;28754;47.700;7.924;2022-12-01T05:08:32;21.40;;;13.27;;
42614;SDS011;28754;47.700;7.924;2022-12-01T05:11:19;18.38;;;11.18;;
42614;SDS011;28754;47.700;7.924;2022-12-01T05:14:06;20.25;;;12.23;;
42614;SDS011;28754;47.700;7.924;2022-12-01T05:16:53;20.88;;;12.80;;
42614;SDS011;28754;47.700;7.924;2022-12-01T05:19:40;23.05;;;14.02;;
42614;SDS011;28754;47.700;7.924;2022-12-01T05:22:45;16.65;;;11.50;;
42614;SDS011;28754;47.700;7.924;2022-12-01T05:25:32;16.88;;;10.80;;
42614;SDS011;28754;47.700;7.924;2022-12-01T05:28:19;15.45;;;10.43;;
42614;SDS011;28754;47.700;7.924;2022-12-01T05:31:08;17.33;;;10.13;;
42614;SDS011;28754;47.700;7.924;2022-12-01T05:33:55;14.68;;;9.95;;
42614;SDS011;28754;47.700;7.924;2022-12-01T05:36:41;15.73;;;10.77;;
42614;SDS011;28754;47.700;7.924;2022-12-01T05:39:28;13.45;;;9.15;;
42614;SDS011;28754;47.700;7.924;2022-12-01T05:42:15;17.17;;;9.43;;
42614;SDS011;28754;47.700;7.924;2022-12-01T05:45:01;10.70;;;8.18;;
42614;SDS011;28754;47.700;7.924;2022-12-01T05:47:48;14.45;;;8.07;;
42614;SDS011;28754;47.700;7.924;2022-12-01T05:50:38;12.25;;;8.45;;
42614;SDS011;28754;47.700;7.924;2022-12-01T05:53:25;14.18;;;8.90;;
42614;SDS011;28754;47.700;7.924;2022-12-01T05:56:12;11.05;;;7.78;;
42614;SDS011;28754;47.700;7.924;2022-12-01T05:58:59;11.90;;;7.63;;
42614;SDS011;28754;47.700;7.924;2022-12-01T06:01:45;14.32;;;8.18;;
42614;SDS011;28754;47.700;7.924;2022-12-01T06:04:32;10.65;;;7.20;;
42614;SDS011;28754;47.700;7.924;2022-12-01T06:07:19;9.55;;;6.43;;
42614;SDS011;28754;47.700;7.924;2022-12-01T06:10:08;8.75;;;6.18;;
42614;SDS011;28754;47.700;7.924;2022-12-01T06:12:56;11.35;;;6.75;;
42614;SDS011;28754;47.700;7.924;2022-12-01T06:15:42;8.77;;;6.05;;
42614;SDS011;28754;47.700;7.924;2022-12-01T06:18:32;9.55;;;6.28;;
42614;SDS011;28754;47.700;7.924;2022-12-01T06:21:22;11.88;;;6.75;;
42614;SDS011;28754;47.700;7.924;2022-12-01T06:24:09;9.32;;;6.03;;
42614;SDS011;28754;47.700;7.924;2022-12-01T06:26:56;11.30;;;7.68;;
42614;SDS011;28754;47.700;7.924;2022-12-01T06:29:43;8.57;;;6.38;;
42614;SDS011;28754;47.700;7.924;2022-12-01T06:32:29;13.85;;;7.95;;
42614;SDS011;28754;47.700;7.924;2022-12-01T06:35:16;13.88;;;7.65;;
42614;SDS011;28754;47.700;7.924;2022-12-01T06:38:03;10.63;;;7.03;;
42614;SDS011;28754;47.700;7.924;2022-12-01T06:40:50;11.60;;;7.88;;
42614;SDS011;28754;47.700;7.924;2022-12-01T06:43:36;12.82;;;8.60;;
42614;SDS011;28754;47.700;7.924;2022-12-01T06:46:23;10.88;;;7.05;;
42614;SDS011;28754;47.700;7.924;2022-12-01T06:49:10;11.20;;;7.60;;
42614;SDS011;28754;47.700;7.924;2022-12-01T06:51:58;13.77;;;8.38;;
42614;SDS011;28754;47.700;7.924;2022-12-01T06:54:44;14.00;;;8.02;;
42614;SDS011;28754;47.700;7.924;2022-12-01T06:57:31;11.13;;;8.65;;
42614;SDS011;28754;47.700;7.924;2022-12-01T07:00:18;12.57;;;8.15;;
42614;SDS011;28754;47.700;7.924;2022-12-01T07:03:05;20.73;;;10.00;;
42614;SDS011;28754;47.700;7.924;2022-12-01T07:05:55;15.77;;;10.98;;
42614;SDS011;28754;47.700;7.924;2022-12-01T07:08:44;13.68;;;9.13;;
42614;SDS011;28754;47.700;7.924;2022-12-01T07:11:31;16.33;;;9.32;;
42614;SDS011;28754;47.700;7.924;2022-12-01T07:14:21;17.23;;;10.02;;
42614;SDS011;28754;47.700;7.924;2022-12-01T07:17:11;15.55;;;10.00;;
42614;SDS011;28754;47.700;7.924;2022-12-01T07:19:58;18.23;;;11.13;;
42614;SDS011;28754;47.700;7.924;2022-12-01T07:22:44;17.05;;;11.77;;
42614;SDS011;28754;47.700;7.924;2022-12-01T07:25:31;15.43;;;10.20;;
42614;SDS011;28754;47.700;7.924;2022-12-01T07:28:18;16.60;;;10.88;;
42614;SDS011;28754;47.700;7.924;2022-12-01T07:31:08;17.00;;;10.75;;
42614;SDS011;28754;47.700;7.924;2022-12-01T07:33:58;19.92;;;11.23;;
42614;SDS011;28754;47.700;7.924;2022-12-01T07:36:45;17.02;;;11.75;;
42614;SDS011;28754;47.700;7.924;2022-12-01T07:39:31;19.05;;;12.20;;
42614;SDS011;28754;47.700;7.924;2022-12-01T07:42:18;18.52;;;11.38;;
42614;SDS011;28754;47.700;7.924;2022-12-01T07:45:05;20.75;;;12.27;;
42614;SDS011;28754;47.700;7.924;2022-12-01T07:47:52;15.00;;;9.57;;
42614;SDS011;28754;47.700;7.924;2022-12-01T07:50:39;16.02;;;9.82;;
42614;SDS011;28754;47.700;7.924;2022-12-01T07:53:25;15.45;;;9.23;;
42614;SDS011;28754;47.700;7.924;2022-12-01T07:56:12;15.10;;;8.82;;
42614;SDS011;28754;47.700;7.924;2022-12-01T07:58:59;16.92;;;9.40;;
42614;SDS011;28754;47.700;7.924;2022-12-01T08:01:46;20.08;;;11.30;;
42614;SDS011;28754;47.700;7.924;2022-12-01T08:04:32;22.02;;;11.68;;
42614;SDS011;28754;47.700;7.924;2022-12-01T08:07:19;18.60;;;10.45;;
42614;SDS011;28754;47.700;7.924;2022-12-01T08:10:06;15.80;;;9.25;;
42614;SDS011;28754;47.700;7.924;2022-12-01T08:12:53;15.70;;;9.48;;
42614;SDS011;28754;47.700;7.924;2022-12-01T08:15:40;14.02;;;9.90;;
42614;SDS011;28754;47.700;7.924;2022-12-01T08:18:26;24.80;;;11.80;;
42614;SDS011;28754;47.700;7.924;2022-12-01T08:21:14;18.23;;;10.70;;
42614;SDS011;28754;47.700;7.924;2022-12-01T08:24:03;17.67;;;10.77;;
42614;SDS011;28754;47.700;7.924;2022-12-01T08:26:50;16.20;;;10.18;;
42614;SDS011;28754;47.700;7.924;2022-12-01T08:29:37;14.93;;;10.02;;
42614;SDS011;28754;47.700;7.924;2022-12-01T08:32:23;16.13;;;8.38;;
42614;SDS011;28754;47.700;7.924;2022-12-01T08:35:10;13.82;;;8.55;;
42614;SDS011;28754;47.700;7.924;2022-12-01T08:37:57;16.40;;;9.73;;
42614;SDS011;28754;47.700;7.924;2022-12-01T08:40:43;12.52;;;8.15;;
42614;SDS011;28754;47.700;7.924;2022-12-01T08:43:30;12.10;;;8.10;;
42614;SDS011;28754;47.700;7.924;2022-12-01T08:46:17;16.20;;;8.23;;
42614;SDS011;28754;47.700;7.924;2022-12-01T08:49:04;13.93;;;7.47;;
42614;SDS011;28754;47.700;7.924;2022-12-01T08:51:51;14.45;;;8.60;;
42614;SDS011;28754;47.700;7.924;2022-12-01T08:54:38;12.20;;;7.45;;
42614;SDS011;28754;47.700;7.924;2022-12-01T08:57:24;15.65;;;9.60;;
42614;SDS011;28754;47.700;7.924;2022-12-01T09:00:14;14.93;;;8.23;;
42614;SDS011;28754;47.700;7.924;2022-12-01T09:03:01;17.00;;;10.13;;
42614;SDS011;28754;47.700;7.924;2022-12-01T09:05:48;14.70;;;8.50;;
42614;SDS011;28754;47.700;7.924;2022-12-01T09:08:35;13.10;;;7.78;;
42614;SDS011;28754;47.700;7.924;2022-12-01T09:11:22;15.43;;;9.13;;
42614;SDS011;28754;47.700;7.924;2022-12-01T09:14:09;13.70;;;8.88;;
42614;SDS011;28754;47.700;7.924;2022-12-01T09:16:57;16.30;;;9.70;;
42614;SDS011;28754;47.700;7.924;2022-12-01T09:19:43;11.15;;;7.53;;
42614;SDS011;28754;47.700;7.924;2022-12-01T09:22:30;10.60;;;6.85;;
42614;SDS011;28754;47.700;7.924;2022-12-01T09:25:17;10.55;;;6.05;;
42614;SDS011;28754;47.700;7.924;2022-12-01T09:28:03;9.93;;;5.40;;
42614;SDS011;28754;47.700;7.924;2022-12-01T09:30:50;8.27;;;5.45;;
42614;SDS011;28754;47.700;7.924;2022-12-01T09:33:37;8.80;;;5.22;;
42614;SDS011;28754;47.700;7.924;2022-12-01T09:36:24;8.10;;;5.20;;
42614;SDS011;28754;47.700;7.924;2022-12-01T09:39:16;13.68;;;8.00;;
42614;SDS011;28754;47.700;7.924;2022-12-01T09:42:07;6.85;;;4.72;;
42614;SDS011;28754;47.700;7.924;2022-12-01T09:45:01;9.77;;;5.32;;
42614;SDS011;28754;47.700;7.924;2022-12-01T09:47:49;9.20;;;5.07;;
42614;SDS011;28754;47.700;7.924;2022-12-01T09:50:39;6.25;;;4.53;;
42614;SDS011;28754;47.700;7.924;2022-12-01T09:53:28;7.13;;;3.95;;
42614;SDS011;28754;47.700;7.924;2022-12-01T09:56:23;13.23;;;7.82;;
42614;SDS011;28754;47.700;7.924;2022-12-01T09:59:15;7.03;;;5.20;;
42614;SDS011;28754;47.700;7.924;2022-12-01T10:02:34;7.82;;;5.22;;
42614;SDS011;28754;47.700;7.924;2022-12-01T10:05:55;8.18;;;4.28;;
42614;SDS011;28754;47.700;7.924;2022-12-01T10:08:56;7.43;;;4.47;;
42614;SDS011;28754;47.700;7.924;2022-12-01T10:11:53;8.05;;;5.88;;
42614;SDS011;28754;47.700;7.924;2022-12-01T10:14:51;5.75;;;4.07;;
42614;SDS011;28754;47.700;7.924;2022-12-01T10:17:54;8.70;;;4.93;;
42614;SDS011;28754;47.700;7.924;2022-12-01T10:24:53;8.18;;;5.45;;
42614;SDS011;28754;47.700;7.924;2022-12-01T10:34:27;10.82;;;6.35;;
42614;SDS011;28754;47.700;7.924;2022-12-01T10:37:19;8.70;;;5.57;;
42614;SDS011;28754;47.700;7.924;2022-12-01T10:40:15;11.05;;;5.95;;
42614;SDS011;28754;47.700;7.924;2022-12-01T10:43:02;12.57;;;7.35;;
42614;SDS011;28754;47.700;7.924;2022-12-01T10:45:49;12.60;;;7.90;;
42614;SDS011;28754;47.700;7.924;2022-12-01T10:48:43;10.23;;;6.70;;
42614;SDS011;28754;47.700;7.924;2022-12-01T10:51:50;16.85;;;8.65;;
42614;SDS011;28754;47.700;7.924;2022-12-01T10:54:39;14.98;;;7.90;;
42614;SDS011;28754;47.700;7.924;2022-12-01T10:57:27;14.20;;;8.00;;
42614;SDS011;28754;47.700;7.924;2022-12-01T11:00:20;10.85;;;7.93;;
42614;SDS011;28754;47.700;7.924;2022-12-01T11:03:19;11.75;;;7.38;;
42614;SDS011;28754;47.700;7.924;2022-12-01T11:06:10;9.43;;;5.75;;
42614;SDS011;28754;47.700;7.924;2022-12-01T11:09:01;12.68;;;6.15;;
42614;SDS011;28754;47.700;7.924;2022-12-01T11:12:05;8.05;;;5.30;;
42614;SDS011;28754;47.700;7.924;2022-12-01T11:14:58;10.40;;;6.32;;
42614;SDS011;28754;47.700;7.924;2022-12-01T11:17:46;13.30;;;7.93;;
42614;SDS011;28754;47.700;7.924;2022-12-01T11:20:34;9.02;;;5.45;;
42614;SDS011;28754;47.700;7.924;2022-12-01T11:23:25;14.75;;;8.60;;
42614;SDS011;28754;47.700;7.924;2022-12-01T11:26:15;6.25;;;4.40;;
42614;SDS011;28754;47.700;7.924;2022-12-01T11:32:28;7.07;;;4.50;;
42614;SDS011;28754;47.700;7.924;2022-12-01T11:35:19;6.45;;;4.28;;
42614;SDS011;28754;47.700;7.924;2022-12-01T11:38:09;6.07;;;3.95;;
42614;SDS011;28754;47.700;7.924;2022-12-01T11:41:18;9.15;;;4.32;;
42614;SDS011;28754;47.700;7.924;2022-12-01T11:44:20;7.00;;;4.57;;
42614;SDS011;28754;47.700;7.924;2022-12-01T11:47:14;8.60;;;4.82;;
42614;SDS011;28754;47.700;7.924;2022-12-01T11:50:22;7.05;;;4.35;;
42614;SDS011;28754;47.700;7.924;2022-12-01T11:53:27;7.57;;;4.47;;
42614;SDS011;28754;47.700;7.924;2022-12-01T11:56:27;7.00;;;4.28;;
42614;SDS011;28754;47.700;7.924;2022-12-01T11:59:21;5.68;;;3.78;;
42614;SDS011;28754;47.700;7.924;2022-12-01T12:12:26;7.05;;;3.10;;
42614;SDS011;28754;47.700;7.924;2022-12-01T12:16:10;8.40;;;4.47;;
42614;SDS011;28754;47.700;7.924;2022-12-01T12:19:21;13.30;;;6.53;;
42614;SDS011;28754;47.700;7.924;2022-12-01T12:22:40;22.23;;;9.52;;
42614;SDS011;28754;47.700;7.924;2022-12-01T12:50:41;5.78;;;3.20;;
42614;SDS011;28754;47.700;7.924;2022-12-01T12:53:57;5.88;;;2.85;;
42614;SDS011;28754;47.700;7.924;2022-12-01T12:57:03;6.25;;;3.70;;
42614;SDS011;28754;47.700;7.924;2022-12-01T13:00:15;9.70;;;4.55;;
42614;SDS011;28754;47.700;7.924;2022-12-01T13:06:20;10.07;;;4.68;;
42614;SDS011;28754;47.700;7.924;2022-12-01T13:09:27;5.70;;;3.88;;
42614;SDS011;28754;47.700;7.924;2022-12-01T13:12:34;7.30;;;4.95;;
42614;SDS011;28754;47.700;7.924;2022-12-01T13:15:25;7.47;;;4.75;;
42614;SDS011;28754;47.700;7.924;2022-12-01T13:21:16;12.25;;;5.65;;
42614;SDS011;28754;47.700;7.924;2022-12-01T13:24:06;9.43;;;5.00;;
42614;SDS011;28754;47.700;7.924;2022-12-01T13:27:00;6.10;;;4.07;;
42614;SDS011;28754;47.700;7.924;2022-12-01T13:30:06;7.15;;;4.20;;
42614;SDS011;28754;47.700;7.924;2022-12-01T13:33:12;12.07;;;5.40;;
42614;SDS011;28754;47.700;7.924;2022-12-01T13:36:01;12.48;;;6.03;;
42614;SDS011;28754;47.700;7.924;2022-12-01T13:38:56;22.55;;;8.65;;
42614;SDS011;28754;47.700;7.924;2022-12-01T13:42:24;7.10;;;3.40;;
42614;SDS011;28754;47.700;7.924;2022-12-01T13:45:16;7.55;;;4.22;;
42614;SDS011;28754;47.700;7.924;2022-12-01T13:48:04;11.65;;;5.50;;
42614;SDS011;28754;47.700;7.924;2022-12-01T13:51:12;28.00;;;11.98;;
42614;SDS011;28754;47.700;7.924;2022-12-01T13:54:25;27.67;;;12.65;;
42614;SDS011;28754;47.700;7.924;2022-12-01T13:57:14;19.27;;;8.98;;
42614;SDS011;28754;47.700;7.924;2022-12-01T14:03:30;21.52;;;9.40;;
42614;SDS011;28754;47.700;7.924;2022-12-01T14:12:27;8.32;;;5.50;;
42614;SDS011;28754;47.700;7.924;2022-12-01T14:15:37;17.10;;;12.30;;
42614;SDS011;28754;47.700;7.924;2022-12-01T14:21:39;25.10;;;11.13;;
42614;SDS011;28754;47.700;7.924;2022-12-01T14:24:41;17.58;;;6.00;;
42614;SDS011;28754;47.700;7.924;2022-12-01T14:27:41;5.75;;;4.20;;
42614;SDS011;28754;47.700;7.924;2022-12-01T14:36:48;6.95;;;4.75;;
42614;SDS011;28754;47.700;7.924;2022-12-01T14:39:40;21.13;;;12.32;;
42614;SDS011;28754;47.700;7.924;2022-12-01T14:42:39;13.07;;;7.35;;
42614;SDS011;28754;47.700;7.924;2022-12-01T14:48:43;18.05;;;7.68;;
42614;SDS011;28754;47.700;7.924;2022-12-01T14:51:31;23.05;;;11.35;;
42614;SDS011;28754;47.700;7.924;2022-12-01T14:54:26;18.52;;;10.10;;
42614;SDS011;28754;47.700;7.924;2022-12-01T14:57:20;23.42;;;10.38;;
42614;SDS011;28754;47.700;7.924;2022-12-01T15:00:18;12.98;;;7.20;;
42614;SDS011;28754;47.700;7.924;2022-12-01T15:03:08;33.03;;;13.20;;
42614;SDS011;28754;47.700;7.924;2022-12-01T15:05:58;18.70;;;10.93;;
42614;SDS011;28754;47.700;7.924;2022-12-01T15:08:45;17.75;;;8.05;;
42614;SDS011;28754;47.700;7.924;2022-12-01T15:12:19;8.38;;;5.47;;
42614;SDS011;28754;47.700;7.924;2022-12-01T15:15:22;12.45;;;7.50;;
42614;SDS011;28754;47.700;7.924;2022-12-01T15:18:21;8.10;;;4.90;;
42614;SDS011;28754;47.700;7.924;2022-12-01T15:24:19;8.65;;;6.25;;
42614;SDS011;28754;47.700;7.924;2022-12-01T15:27:29;7.97;;;5.13;;
42614;SDS011;28754;47.700;7.924;2022-12-01T15:30:17;9.43;;;5.78;;
42614;SDS011;28754;47.700;7.924;2022-12-01T15:33:04;11.05;;;7.78;;
42614;SDS011;28754;47.700;7.924;2022-12-01T15:35:55;10.07;;;6.38;;
42614;SDS011;28754;47.700;7.924;2022-12-01T15:38:44;10.50;;;6.93;;
42614;SDS011;28754;47.700;7.924;2022-12-01T15:41:33;10.98;;;6.93;;
42614;SDS011;28754;47.700;7.924;2022-12-01T15:44:29;47.75;;;26.50;;
42614;SDS011;28754;47.700;7.924;2022-12-01T15:50:40;13.48;;;7.50;;
42614;SDS011;28754;47.700;7.924;2022-12-01T15:53:32;11.27;;;7.05;;
42614;SDS011;28754;47.700;7.924;2022-12-01T15:56:26;12.60;;;6.97;;
42614;SDS011;28754;47.700;7.924;2022-12-01T15:59:40;13.85;;;7.80;;
42614;SDS011;28754;47.700;7.924;2022-12-01T16:02:31;10.55;;;6.07;;
42614;SDS011;28754;47.700;7.924;2022-12-01T16:05:19;11.57;;;7.18;;
42614;SDS011;28754;47.700;7.924;2022-12-01T16:08:18;16.33;;;8.82;;
42614;SDS011;28754;47.700;7.924;2022-12-01T16:11:10;13.00;;;8.23;;
42614;SDS011;28754;47.700;7.924;2022-12-01T16:17:05;8.23;;;5.55;;
42614;SDS011;28754;47.700;7.924;2022-12-01T16:20:15;9.68;;;5.88;;
42614;SDS011;28754;47.700;7.924;2022-12-01T16:23:21;9.23;;;6.63;;
42614;SDS011;28754;47.700;7.924;2022-12-01T16:26:11;10.50;;;6.32;;
42614;SDS011;28754;47.700;7.924;2022-12-01T16:28:58;10.98;;;7.20;;
42614;SDS011;28754;47.700;7.924;2022-12-01T16:31:45;10.20;;;6.45;;
42614;SDS011;28754;47.700;7.924;2022-12-01T16:34:34;8.27;;;5.97;;
42614;SDS011;28754;47.700;7.924;2022-12-01T16:37:21;11.32;;;7.32;;
42614;SDS011;28754;47.700;7.924;2022-12-01T16:40:08;10.10;;;6.10;;
42614;SDS011;28754;47.700;7.924;2022-12-01T16:42:57;14.35;;;8.75;;
42614;SDS011;28754;47.700;7.924;2022-12-01T16:45:45;9.70;;;5.97;;
42614;SDS011;28754;47.700;7.924;2022-12-01T16:48:37;8.98;;;5.72;;
42614;SDS011;28754;47.700;7.924;2022-12-01T16:51:24;9.32;;;5.75;;
42614;SDS011;28754;47.700;7.924;2022-12-01T16:54:11;10.63;;;6.22;;
42614;SDS011;28754;47.700;7.924;2022-12-01T16:56:57;9.25;;;6.03;;
42614;SDS011;28754;47.700;7.924;2022-12-01T16:59:50;12.98;;;6.82;;
42614;SDS011;28754;47.700;7.924;2022-12-01T17:03:05;20.65;;;11.35;;
42614;SDS011;28754;47.700;7.924;2022-12-01T17:05:53;17.45;;;9.35;;
42614;SDS011;28754;47.700;7.924;2022-12-01T17:09:06;9.07;;;5.70;;
42614;SDS011;28754;47.700;7.924;2022-12-01T17:12:21;10.65;;;5.88;;
42614;SDS011;28754;47.700;7.924;2022-12-01T17:22:47;7.13;;;4.65;;
42614;SDS011;28754;47.700;7.924;2022-12-01T17:25:38;6.78;;;4.35;;
42614;SDS011;28754;47.700;7.924;2022-12-01T17:28:32;11.63;;;6.20;;
42614;SDS011;28754;47.700;7.924;2022-12-01T17:36:09;8.05;;;5.35;;
42614;SDS011;28754;47.700;7.924;2022-12-01T17:38:58;14.82;;;9.32;;
42614;SDS011;28754;47.700;7.924;2022-12-01T17:41:45;11.38;;;7.72;;
42614;SDS011;28754;47.700;7.924;2022-12-01T17:44:34;12.63;;;8.30;;
42614;SDS011;28754;47.700;7.924;2022-12-01T17:47:26;10.80;;;7.70;;
42614;SDS011;28754;47.700;7.924;2022-12-01T17:50:25;8.13;;;4.53;;
42614;SDS011;28754;47.700;7.924;2022-12-01T17:53:12;10.85;;;6.00;;
42614;SDS011;28754;47.700;7.924;2022-12-01T17:55:58;8.63;;;6.60;;
42614;SDS011;28754;47.700;7.924;2022-12-01T17:58:58;12.68;;;6.78;;
42614;SDS011;28754;47.700;7.924;2022-12-01T18:01:44;9.65;;;6.18;;
42614;SDS011;28754;47.700;7.924;2022-12-01T18:04:36;8.73;;;5.15;;
42614;SDS011;28754;47.700;7.924;2022-12-01T18:21:48;17.05;;;10.38;;
42614;SDS011;28754;47.700;7.924;2022-12-01T18:33:50;6.72;;;3.55;;
42614;SDS011;28754;47.700;7.924;2022-12-01T18:40:34;9.52;;;6.13;;
42614;SDS011;28754;47.700;7.924;2022-12-01T18:43:29;8.15;;;4.95;;
42614;SDS011;28754;47.700;7.924;2022-12-01T18:46:18;4.65;;;3.30;;
42614;SDS011;28754;47.700;7.924;2022-12-01T18:49:06;5.13;;;3.42;;
42614;SDS011;28754;47.700;7.924;2022-12-01T18:51:54;5.35;;;3.45;;
42614;SDS011;28754;47.700;7.924;2022-12-01T18:54:41;6.22;;;3.85;;
42614;SDS011;28754;47.700;7.924;2022-12-01T18:57:28;4.20;;;2.90;;
42614;SDS011;28754;47.700;7.924;2022-12-01T19:00:15;7.70;;;3.15;;
42614;SDS011;28754;47.700;7.924;2022-12-01T19:03:02;4.15;;;2.88;;
42614;SDS011;28754;47.700;7.924;2022-12-01T19:05:50;9.93;;;4.22;;
42614;SDS011;28754;47.700;7.924;2022-12-01T19:08:39;6.68;;;4.05;;
42614;SDS011;28754;47.700;7.924;2022-12-01T19:11:29;6.47;;;4.05;;
42614;SDS011;28754;47.700;7.924;2022-12-01T19:14:18;8.40;;;5.20;;
42614;SDS011;28754;47.700;7.924;2022-12-01T19:17:12;8.83;;;5.47;;
42614;SDS011;28754;47.700;7.924;2022-12-01T19:19:59;9.57;;;6.00;;
42614;SDS011;28754;47.700;7.924;2022-12-01T19:22:46;6.95;;;4.80;;
42614;SDS011;28754;47.700;7.924;2022-12-01T19:25:38;11.45;;;6.53;;
42614;SDS011;28754;47.700;7.924;2022-12-01T19:28:51;11.35;;;6.35;;
42614;SDS011;28754;47.700;7.924;2022-12-01T19:31:44;14.75;;;8.05;;
42614;SDS011;28754;47.700;7.924;2022-12-01T19:34:47;10.10;;;5.97;;
42614;SDS011;28754;47.700;7.924;2022-12-01T19:39:18;12.63;;;7.47;;
42614;SDS011;28754;47.700;7.924;2022-12-01T20:00:29;10.77;;;6.78;;
42614;SDS011;28754;47.700;7.924;2022-12-01T20:51:33;8.63;;;5.07;;
42614;SDS011;28754;47.700;7.924;2022-12-01T20:59:28;8.10;;;5.05;;